This is the latest recevied weather packets stored in our database for station/object KG5WBN. If no packets are shown the sender has not sent any weather packets the latest 10 day(s).
| Time | Temp. | Humidity | Pressure | Rain* | Wind** | Luminosity | Snow |
|---|---|---|---|---|---|---|---|
| 1777482477 | 30° C | 43% | 1014.2 hPa | 0 mm | - | 365 W/m² | - |
| 1777482175 | 30° C | 43% | 1014.2 hPa | 0 mm | - | 159 W/m² | - |
| 1777481873 | 30.56° C | 43% | 1014.6 hPa | 0 mm | - | 412 W/m² | - |
| 1777481570 | 31.11° C | 41% | 1014.6 hPa | 0 mm | - | 399 W/m² | - |
| 1777481267 | 30.56° C | 41% | 1014.6 hPa | 0 mm | - | 394 W/m² | - |
| 1777480964 | 30° C | 43% | 1014.6 hPa | 0 mm | - | 387 W/m² | - |
| 1777480660 | 30.56° C | 43% | 1014.6 hPa | 0 mm | - | 188 W/m² | - |
| 1777480357 | 30° C | 43% | 1014.6 hPa | 0 mm | - | 368 W/m² | - |
| 1777480052 | 30° C | 44% | 1014.6 hPa | 0 mm | - | 356 W/m² | - |
| 1777479749 | 30° C | 44% | 1014.6 hPa | 0 mm | - | 315 W/m² | - |
| 1777479447 | 30° C | 43% | 1014.6 hPa | 0 mm | - | 326 W/m² | - |
| 1777479143 | 30° C | 43% | 1014.6 hPa | 0 mm | - | 400 W/m² | - |
| 1777478840 | 30° C | 43% | 1014.6 hPa | 0 mm | - | 302 W/m² | - |
| 1777478536 | 30° C | 46% | 1014.6 hPa | 0 mm | - | 388 W/m² | - |
| 1777478234 | 30° C | 46% | 1014.6 hPa | 0 mm | - | 320 W/m² | - |
| 1777477930 | 29.44° C | 45% | 1014.6 hPa | 0 mm | - | 299 W/m² | - |
| 1777477625 | 29.44° C | 47% | 1014.9 hPa | 0 mm | - | 315 W/m² | - |
| 1777477322 | 29.44° C | 47% | 1014.6 hPa | 0 mm | - | 341 W/m² | - |
| 1777477019 | 30° C | 47% | 1014.6 hPa | 0 mm | - | 325 W/m² | - |
| 1777476717 | 29.44° C | 48% | 1014.9 hPa | 0 mm | - | 318 W/m² | - |
| 1777476413 | 28.89° C | 49% | 1014.9 hPa | 0 mm | - | 320 W/m² | - |
| 1777476110 | 30° C | 45% | 1014.6 hPa | 0 mm | - | 134 W/m² | - |
| 1777475805 | 29.44° C | 46% | 1014.6 hPa | 0 mm | - | 293 W/m² | - |
| 1777475502 | 29.44° C | 46% | 1014.9 hPa | 0 mm | - | 288 W/m² | - |
| 1777475198 | 30° C | 45% | 1014.9 hPa | 0 mm | - | 321 W/m² | - |
* Rain latest hour (hover to see other rain measurements)
** Current wind speed in m/s (hover to see current wind gust speed)